createdAt,value
2017-08-06T18:21:24.960Z,1018.32
2017-08-06T18:27:46.505Z,1018.33
2017-08-06T18:28:48.060Z,1018.30
2017-08-06T18:29:48.054Z,1018.32
2017-08-06T18:30:48.052Z,1018.29
2017-08-06T18:31:48.054Z,1018.30
2017-08-06T18:32:48.048Z,1018.28
2017-08-06T18:33:48.048Z,1018.28
2017-08-06T18:34:48.342Z,1018.31
2017-08-06T18:35:48.041Z,1018.29
2017-08-06T18:36:48.036Z,1018.32
2017-08-06T18:37:48.041Z,1018.29
2017-08-06T18:38:48.029Z,1018.28
2017-08-06T18:39:48.021Z,1018.32
2017-08-06T18:40:48.019Z,1018.33
2017-08-06T18:41:48.014Z,1018.32
2017-08-06T18:42:48.013Z,1018.36
2017-08-06T18:43:48.009Z,1018.36
2017-08-06T18:44:48.005Z,1018.35
2017-08-06T18:45:48.003Z,1018.29
2017-08-06T18:46:47.999Z,1018.32
2017-08-06T18:47:47.998Z,1018.36
2017-08-06T18:48:47.997Z,1018.35
2017-08-06T18:49:47.992Z,1018.27
2017-08-06T18:50:47.991Z,1018.32
2017-08-06T18:51:47.986Z,1018.28
2017-08-06T18:52:47.985Z,1018.33
2017-08-06T18:53:47.982Z,1018.36
2017-08-06T18:54:47.979Z,1018.37
2017-08-06T18:55:47.972Z,1018.35
2017-08-06T18:56:47.968Z,1018.39
2017-08-06T18:57:47.966Z,1018.34
2017-08-06T18:58:47.962Z,1018.36
2017-08-06T18:59:47.956Z,1018.33
2017-08-06T19:00:47.957Z,1018.34
2017-08-06T19:01:47.950Z,1018.35
2017-08-06T19:02:47.947Z,1018.34
2017-08-06T19:03:47.962Z,1018.35
2017-08-06T19:04:47.948Z,1018.27
2017-08-06T19:05:47.946Z,1018.39
2017-08-06T19:06:47.944Z,1018.37
2017-08-06T19:07:47.941Z,1018.34
2017-08-06T19:08:47.937Z,1018.39
2017-08-06T19:09:47.935Z,1018.36
2017-08-06T19:10:47.929Z,1018.37
2017-08-06T19:11:47.923Z,1018.40
2017-08-06T19:12:47.923Z,1018.35
2017-08-06T19:13:47.915Z,1018.40
2017-08-06T19:14:47.913Z,1018.41
2017-08-06T19:15:47.911Z,1018.36
2017-08-06T19:16:47.904Z,1018.43
2017-08-06T19:17:47.901Z,1018.47
2017-08-06T19:18:47.894Z,1018.49
2017-08-06T19:19:47.895Z,1018.48
2017-08-06T19:20:47.895Z,1018.50
2017-08-06T19:21:47.886Z,1018.48
2017-08-06T19:22:47.888Z,1018.53
2017-08-06T19:23:47.879Z,1018.54
2017-08-06T19:24:47.875Z,1018.49
2017-08-06T19:25:47.870Z,1018.52
2017-08-06T19:26:47.870Z,1018.50
2017-08-06T19:27:47.857Z,1018.50
2017-08-06T19:28:47.850Z,1018.55
2017-08-06T19:29:47.849Z,1018.57
2017-08-06T19:30:47.842Z,1018.60
2017-08-06T19:31:47.850Z,1018.58
2017-08-06T19:32:47.837Z,1018.57
2017-08-06T19:33:47.830Z,1018.62
2017-08-06T19:34:47.825Z,1018.64
2017-08-06T19:35:47.817Z,1018.62
2017-08-06T19:36:47.810Z,1018.64
2017-08-06T19:37:47.809Z,1018.68
2017-08-06T19:38:47.799Z,1018.66
2017-08-06T19:39:47.794Z,1018.67
2017-08-06T19:40:47.792Z,1018.65
2017-08-06T19:41:47.784Z,1018.67
2017-08-06T19:42:47.777Z,1018.65
2017-08-06T19:43:47.775Z,1018.61
2017-08-06T19:44:47.771Z,1018.64
2017-08-06T19:45:47.764Z,1018.67
2017-08-06T19:46:47.762Z,1018.68
2017-08-06T19:47:47.756Z,1018.69
2017-08-06T19:48:47.748Z,1018.65
2017-08-06T19:49:47.743Z,1018.71
2017-08-06T19:50:47.737Z,1018.64
2017-08-06T19:51:47.726Z,1018.64
2017-08-06T19:52:47.724Z,1018.63
2017-08-06T19:53:47.715Z,1018.70
2017-08-06T19:54:47.714Z,1018.64
2017-08-06T19:55:47.707Z,1018.63
2017-08-06T19:56:47.701Z,1018.61
2017-08-06T19:57:47.695Z,1018.68
2017-08-06T19:58:47.687Z,1018.67
2017-08-06T19:59:47.693Z,1018.66
2017-08-06T20:00:47.679Z,1018.65
2017-08-06T20:01:47.676Z,1018.68
2017-08-06T20:02:47.666Z,1018.69
2017-08-06T20:03:47.661Z,1018.67
2017-08-06T20:04:47.657Z,1018.66
2017-08-06T20:05:47.651Z,1018.67
2017-08-06T20:06:47.645Z,1018.66
2017-08-06T20:07:47.637Z,1018.66
2017-08-06T20:08:47.628Z,1018.67
2017-08-06T20:09:47.625Z,1018.65
2017-08-06T20:10:47.616Z,1018.68
2017-08-06T20:11:47.613Z,1018.67
2017-08-06T20:12:47.605Z,1018.62
2017-08-06T20:13:47.601Z,1018.64
2017-08-06T20:14:47.596Z,1018.63
2017-08-06T20:15:47.592Z,1018.67
2017-08-06T20:16:47.588Z,1018.65
2017-08-06T20:17:47.579Z,1018.65
2017-08-06T20:18:47.577Z,1018.62
2017-08-06T20:19:47.569Z,1018.64
2017-08-06T20:20:47.561Z,1018.67
2017-08-06T20:21:47.558Z,1018.65
2017-08-06T20:22:47.549Z,1018.67
2017-08-06T20:23:47.541Z,1018.69
2017-08-06T20:24:47.538Z,1018.70
2017-08-06T20:25:47.530Z,1018.71
2017-08-06T20:26:47.523Z,1018.69
2017-08-06T20:27:47.515Z,1018.71
2017-08-06T20:28:47.512Z,1018.70
2017-08-06T20:29:47.504Z,1018.71
2017-08-06T20:30:47.499Z,1018.67
2017-08-06T20:31:47.496Z,1018.72
2017-08-06T20:32:47.490Z,1018.70
2017-08-06T20:33:47.488Z,1018.73
2017-08-06T20:34:47.476Z,1018.71
2017-08-06T20:35:47.468Z,1018.74
2017-08-06T20:36:47.461Z,1018.72
2017-08-06T20:37:47.454Z,1018.76
2017-08-06T20:38:47.449Z,1018.74
2017-08-06T20:39:47.450Z,1018.73
2017-08-06T20:40:47.439Z,1018.70
2017-08-06T20:41:47.435Z,1018.70
2017-08-06T20:42:47.425Z,1018.67
2017-08-06T20:43:47.421Z,1018.74
2017-08-06T20:44:47.416Z,1018.71
2017-08-06T20:45:47.409Z,1018.72
2017-08-06T20:46:47.401Z,1018.66
2017-08-06T20:47:47.403Z,1018.70
2017-08-06T20:48:47.385Z,1018.70
2017-08-06T20:49:47.378Z,1018.69
2017-08-06T20:50:47.373Z,1018.71
2017-08-06T20:51:47.367Z,1018.71
2017-08-06T20:52:47.360Z,1018.74
2017-08-06T20:53:47.354Z,1018.70
2017-08-06T20:54:47.345Z,1018.68
2017-08-06T20:55:47.343Z,1018.70
2017-08-06T20:56:47.356Z,1018.67
2017-08-06T20:57:47.329Z,1018.64
2017-08-06T20:58:47.327Z,1018.65
2017-08-06T20:59:47.316Z,1018.61
2017-08-06T21:00:47.315Z,1018.63
2017-08-06T21:01:47.315Z,1018.65
2017-08-06T21:02:47.298Z,1018.59
2017-08-06T21:03:47.292Z,1018.64
2017-08-06T21:04:47.282Z,1018.60
2017-08-06T21:05:47.292Z,1018.61
2017-08-06T21:06:47.266Z,1018.60
2017-08-06T21:07:47.260Z,1018.63
2017-08-06T21:08:47.257Z,1018.59
2017-08-06T21:09:47.249Z,1018.63
2017-08-06T21:10:47.241Z,1018.63
2017-08-06T21:11:47.266Z,1018.61
2017-08-06T21:12:47.232Z,1018.62
2017-08-06T21:13:47.226Z,1018.61
2017-08-06T21:14:47.216Z,1018.61
2017-08-06T21:15:47.215Z,1018.59
2017-08-06T21:16:47.203Z,1018.60
2017-08-06T21:17:47.201Z,1018.63
2017-08-06T21:18:47.191Z,1018.60
2017-08-06T21:19:47.180Z,1018.62
2017-08-06T21:20:47.175Z,1018.60
2017-08-06T21:21:47.165Z,1018.54
2017-08-06T21:22:47.161Z,1018.58
2017-08-06T21:23:47.163Z,1018.56
2017-08-06T21:24:47.146Z,1018.57
2017-08-06T21:25:47.140Z,1018.60
2017-08-06T21:26:47.133Z,1018.60
2017-08-06T21:27:47.130Z,1018.57
2017-08-06T21:28:47.124Z,1018.58
2017-08-06T21:29:47.116Z,1018.65
2017-08-06T21:30:47.109Z,1018.57
2017-08-06T21:31:47.101Z,1018.62
2017-08-06T21:32:47.109Z,1018.62
2017-08-06T21:33:47.088Z,1018.61
2017-08-06T21:34:47.084Z,1018.62
2017-08-06T21:35:47.071Z,1018.60
2017-08-06T21:36:47.063Z,1018.64
2017-08-06T21:37:47.058Z,1018.58
2017-08-06T21:38:47.049Z,1018.59
2017-08-06T21:39:47.047Z,1018.59
2017-08-06T21:40:47.042Z,1018.58
2017-08-06T21:41:47.033Z,1018.62
2017-08-06T21:42:47.027Z,1018.58
2017-08-06T21:43:47.016Z,1018.60
2017-08-06T21:44:47.007Z,1018.57
2017-08-06T21:45:47.003Z,1018.58
2017-08-06T21:46:46.992Z,1018.59
2017-08-06T21:47:46.992Z,1018.59
2017-08-06T21:48:46.978Z,1018.54
2017-08-06T21:49:46.974Z,1018.57
2017-08-06T21:50:46.964Z,1018.54
2017-08-06T21:51:46.962Z,1018.57
2017-08-06T21:52:46.957Z,1018.55
2017-08-06T21:53:46.947Z,1018.55
2017-08-06T21:54:46.944Z,1018.55
2017-08-06T21:55:46.935Z,1018.57
2017-08-06T21:56:46.926Z,1018.54
2017-08-06T21:57:46.921Z,1018.56
2017-08-06T21:58:46.912Z,1018.58
2017-08-06T21:59:46.900Z,1018.59
2017-08-06T22:00:46.895Z,1018.61
2017-08-06T22:01:46.886Z,1018.61
2017-08-06T22:02:46.881Z,1018.62
2017-08-06T22:03:46.871Z,1018.62
2017-08-06T22:04:46.867Z,1018.64
2017-08-06T22:05:46.857Z,1018.62
2017-08-06T22:06:46.852Z,1018.60
2017-08-06T22:07:46.849Z,1018.60
2017-08-06T22:08:46.841Z,1018.65
2017-08-06T22:09:46.835Z,1018.63
2017-08-06T22:10:46.825Z,1018.57
2017-08-06T22:11:46.819Z,1018.59
2017-08-06T22:12:46.813Z,1018.57
2017-08-06T22:13:46.804Z,1018.57
2017-08-06T22:14:46.798Z,1018.59
2017-08-06T22:15:46.787Z,1018.59
2017-08-06T22:16:46.777Z,1018.59
2017-08-06T22:17:46.773Z,1018.56
2017-08-06T22:18:46.764Z,1018.57
2017-08-06T22:19:46.758Z,1018.60
2017-08-06T22:20:46.749Z,1018.62
2017-08-06T22:21:46.749Z,1018.62
2017-08-06T22:22:46.735Z,1018.59
2017-08-06T22:23:46.733Z,1018.59
2017-08-06T22:24:46.727Z,1018.57
2017-08-06T22:25:46.718Z,1018.60
2017-08-06T22:26:46.712Z,1018.58
2017-08-06T22:27:46.705Z,1018.57
2017-08-06T22:28:46.695Z,1018.62
2017-08-06T22:29:46.689Z,1018.60
2017-08-06T22:30:46.682Z,1018.60
2017-08-06T22:31:46.669Z,1018.62
2017-08-06T22:32:46.664Z,1018.63
2017-08-06T22:33:46.655Z,1018.64
2017-08-06T22:34:46.647Z,1018.64
2017-08-06T22:35:46.639Z,1018.62
2017-08-06T22:36:46.637Z,1018.60
2017-08-06T22:37:46.624Z,1018.63
2017-08-06T22:38:46.619Z,1018.63
2017-08-06T22:39:46.615Z,1018.60
2017-08-06T22:40:46.606Z,1018.57
2017-08-06T22:41:46.601Z,1018.59
2017-08-06T22:42:46.591Z,1018.57
2017-08-06T22:43:46.585Z,1018.59
2017-08-06T22:44:46.576Z,1018.60
2017-08-06T22:45:46.570Z,1018.56
2017-08-06T22:46:46.560Z,1018.54
2017-08-06T22:47:46.549Z,1018.54
2017-08-06T22:48:46.544Z,1018.64
2017-08-06T22:49:46.534Z,1018.56
2017-08-06T22:50:46.528Z,1018.58
2017-08-06T22:51:46.522Z,1018.56
2017-08-06T22:52:46.513Z,1018.58
2017-08-06T22:53:46.504Z,1018.58
2017-08-06T22:54:46.498Z,1018.55
2017-08-06T22:55:46.497Z,1018.55
2017-08-06T22:56:46.486Z,1018.58
2017-08-06T22:57:46.480Z,1018.56
2017-08-06T22:58:46.471Z,1018.56
2017-08-06T22:59:46.464Z,1018.53
2017-08-06T23:00:46.459Z,1018.54
2017-08-06T23:01:46.449Z,1018.50
2017-08-06T23:02:46.443Z,1018.52
2017-08-06T23:03:46.432Z,1018.53
2017-08-06T23:04:46.422Z,1018.51
2017-08-06T23:05:46.418Z,1018.49
2017-08-06T23:06:46.407Z,1018.53
2017-08-06T23:07:46.401Z,1018.50
2017-08-06T23:08:46.394Z,1018.48
2017-08-06T23:09:46.388Z,1018.50
2017-08-06T23:10:46.378Z,1018.44
2017-08-06T23:11:46.375Z,1018.43
2017-08-06T23:12:46.369Z,1018.39
2017-08-06T23:13:46.363Z,1018.39
2017-08-06T23:14:46.354Z,1018.40
2017-08-06T23:15:46.347Z,1018.40
2017-08-06T23:16:46.336Z,1018.36
2017-08-06T23:17:46.331Z,1018.37
2017-08-06T23:18:46.320Z,1018.37
2017-08-06T23:19:46.311Z,1018.40
2017-08-06T23:20:46.304Z,1018.40
2017-08-06T23:21:46.294Z,1018.37
2017-08-06T23:22:46.288Z,1018.35
2017-08-06T23:23:46.279Z,1018.40
2017-08-06T23:24:46.273Z,1018.38
2017-08-06T23:25:46.263Z,1018.36
2017-08-06T23:26:46.258Z,1018.38
2017-08-06T23:27:46.254Z,1018.35
2017-08-06T23:28:46.243Z,1018.36
2017-08-06T23:29:46.237Z,1018.35
2017-08-06T23:30:46.229Z,1018.34
2017-08-06T23:31:46.221Z,1018.37
2017-08-06T23:32:46.214Z,1018.37
2017-08-06T23:33:46.203Z,1018.31
2017-08-06T23:34:46.197Z,1018.32
2017-08-06T23:35:46.185Z,1018.33
2017-08-06T23:36:46.176Z,1018.29
2017-08-06T23:37:46.170Z,1018.28
2017-08-06T23:38:46.159Z,1018.30
2017-08-06T23:39:46.155Z,1018.30
2017-08-06T23:40:46.144Z,1018.27
2017-08-06T23:41:46.139Z,1018.28
2017-08-06T23:42:46.126Z,1018.27
2017-08-06T23:43:46.125Z,1018.25
2017-08-06T23:44:46.117Z,1018.26
2017-08-06T23:45:46.108Z,1018.19
2017-08-06T23:46:46.101Z,1018.21
2017-08-06T23:47:46.091Z,1018.19
2017-08-06T23:48:46.082Z,1018.18
2017-08-06T23:49:46.075Z,1018.19
2017-08-06T23:50:46.063Z,1018.14
2017-08-06T23:51:46.061Z,1018.11
2017-08-06T23:52:46.054Z,1018.14
2017-08-06T23:53:46.044Z,1018.12
2017-08-06T23:54:46.037Z,1018.11
2017-08-06T23:55:46.027Z,1018.11
2017-08-06T23:56:46.022Z,1018.06
2017-08-06T23:57:46.013Z,1018.05
2017-08-06T23:58:46.306Z,1018.06
2017-08-06T23:59:45.993Z,1018.06
